Skip Navigation LinksHome page > Weather > Current weather Skip Navigation Links

Current Weather

Aalborg, Denmark

For information only: do not use for flight planning or navigation.
Latest weather
Observation time Friday, October 20, 2017 6:20 AM CEST
Local time Friday, October 20, 2017 6:55 AM CEST
Flight conditions Conditions unknown
Winds
Wind direction East-Southeast (120°)
Wind speed 20 mph
Present weather light rain showers
Sky condition
Ceiling 1,100 ft. broken clouds
Cloud layer few clouds 900 ft.
Cloud layer broken clouds 1,100 ft.
Cloud layer overcast 1,400 ft.
Temperature 55°F
Dewpoint 52°F
Altimeter 29.85 in.Hg
Derived measurements
Relative humidity 88%
Density altitude 27 ft.
Remarks
Fully automated report.
METAR EKYT 200420Z AUTO 12017KT 9999NDV -SHRA FEW009/// BKN011/// OVC014/// 13/11 Q1011

Settings

Location code

InnerDrive.Weather 4.0.6144.1 Release CLR 4.0.30319.36366
Copyright ©2015 Inner Drive Technology. All rights reserved. Portions Copyright ©1986-2015 David Braverman.

Find weather

Site navigation


Skip Navigation Links

Place info

Page info

PayPal - The safer, easier way to pay online!

Return home.

Copyright ©2017 Inner Drive Technology. Purveyors of fine, hand-crafted computer software. Page printed 2017-10-20T04:55:11 UTC.